sensor_id;sensor_type;location;lat;lon;timestamp;pressure;altitude;pressure_sealevel;temperature;humidity
62248;BME280;48237;50.140;8.486;2023-05-19T00:00:08;100354.24;;;10.52;52.64
62248;BME280;48237;50.140;8.486;2023-05-19T00:00:08;100354.52;;;10.52;52.66
62248;BME280;48237;50.140;8.486;2023-05-19T00:02:38;100354.44;;;10.24;53.78
62248;BME280;48237;50.140;8.486;2023-05-19T00:02:39;100354.36;;;10.25;53.78
62248;BME280;48237;50.140;8.486;2023-05-19T00:05:08;100359.63;;;9.85;54.03
62248;BME280;48237;50.140;8.486;2023-05-19T00:05:09;100359.64;;;10.08;54.01
62248;BME280;48237;50.140;8.486;2023-05-19T00:07:38;100354.54;;;10.19;53.37
62248;BME280;48237;50.140;8.486;2023-05-19T00:07:38;100354.25;;;10.40;53.38
62248;BME280;48237;50.140;8.486;2023-05-19T00:10:07;100353.68;;;10.22;53.27
62248;BME280;48237;50.140;8.486;2023-05-19T00:10:08;100353.46;;;10.25;53.24
62248;BME280;48237;50.140;8.486;2023-05-19T00:12:37;100350.71;;;10.44;53.19
62248;BME280;48237;50.140;8.486;2023-05-19T00:12:37;100349.68;;;10.00;53.15
62248;BME280;48237;50.140;8.486;2023-05-19T00:15:06;100358.41;;;10.18;53.79
62248;BME280;48237;50.140;8.486;2023-05-19T00:15:07;100358.52;;;9.73;53.83
62248;BME280;48237;50.140;8.486;2023-05-19T00:17:35;100361.25;;;9.57;54.57
62248;BME280;48237;50.140;8.486;2023-05-19T00:17:36;100362.08;;;9.78;54.59
62248;BME280;48237;50.140;8.486;2023-05-19T00:20:04;100361.18;;;10.13;54.24
62248;BME280;48237;50.140;8.486;2023-05-19T00:20:05;100361.41;;;9.92;54.24
62248;BME280;48237;50.140;8.486;2023-05-19T00:22:33;100362.84;;;10.20;53.55
62248;BME280;48237;50.140;8.486;2023-05-19T00:22:34;100362.12;;;10.20;53.46
62248;BME280;48237;50.140;8.486;2023-05-19T00:25:05;100366.11;;;9.50;54.38
62248;BME280;48237;50.140;8.486;2023-05-19T00:25:06;100366.10;;;9.70;54.44
62248;BME280;48237;50.140;8.486;2023-05-19T00:27:34;100355.42;;;10.58;52.85
62248;BME280;48237;50.140;8.486;2023-05-19T00:27:35;100355.30;;;10.35;52.82
62248;BME280;48237;50.140;8.486;2023-05-19T00:30:04;100358.35;;;10.88;51.64
62248;BME280;48237;50.140;8.486;2023-05-19T00:30:06;100358.71;;;10.91;51.58
62248;BME280;48237;50.140;8.486;2023-05-19T00:32:33;100351.34;;;10.66;52.24
62248;BME280;48237;50.140;8.486;2023-05-19T00:32:34;100351.86;;;10.68;52.24
62248;BME280;48237;50.140;8.486;2023-05-19T00:35:05;100362.50;;;9.22;54.43
62248;BME280;48237;50.140;8.486;2023-05-19T00:35:06;100362.90;;;9.24;54.44
62248;BME280;48237;50.140;8.486;2023-05-19T00:37:33;100356.34;;;10.42;52.90
62248;BME280;48237;50.140;8.486;2023-05-19T00:37:35;100355.79;;;10.17;52.82
62248;BME280;48237;50.140;8.486;2023-05-19T00:40:01;100350.90;;;10.49;53.38
62248;BME280;48237;50.140;8.486;2023-05-19T00:40:04;100349.74;;;10.48;53.34
62248;BME280;48237;50.140;8.486;2023-05-19T00:42:30;100350.40;;;10.56;52.98
62248;BME280;48237;50.140;8.486;2023-05-19T00:42:32;100349.27;;;10.54;52.91
62248;BME280;48237;50.140;8.486;2023-05-19T00:45:00;100347.14;;;9.99;54.28
62248;BME280;48237;50.140;8.486;2023-05-19T00:45:02;100346.55;;;10.22;54.26
62248;BME280;48237;50.140;8.486;2023-05-19T00:47:29;100344.93;;;10.52;53.50
62248;BME280;48237;50.140;8.486;2023-05-19T00:47:30;100345.95;;;10.30;53.40
62248;BME280;48237;50.140;8.486;2023-05-19T00:50:01;100341.88;;;10.04;54.26
62248;BME280;48237;50.140;8.486;2023-05-19T00:50:02;100341.97;;;9.87;54.24
62248;BME280;48237;50.140;8.486;2023-05-19T00:52:29;100340.29;;;9.70;54.18
62248;BME280;48237;50.140;8.486;2023-05-19T00:52:30;100340.70;;;9.93;54.14
62248;BME280;48237;50.140;8.486;2023-05-19T00:54:57;100332.78;;;9.84;54.23
62248;BME280;48237;50.140;8.486;2023-05-19T00:54:58;100334.40;;;9.75;54.35
62248;BME280;48237;50.140;8.486;2023-05-19T00:57:27;100336.10;;;10.02;54.14
62248;BME280;48237;50.140;8.486;2023-05-19T00:57:28;100334.71;;;10.02;54.14
62248;BME280;48237;50.140;8.486;2023-05-19T01:00:00;100331.04;;;10.57;53.77
62248;BME280;48237;50.140;8.486;2023-05-19T01:00:01;100331.94;;;10.42;53.70
62248;BME280;48237;50.140;8.486;2023-05-19T01:02:28;100330.24;;;10.44;53.83
62248;BME280;48237;50.140;8.486;2023-05-19T01:02:29;100330.11;;;10.01;53.78
62248;BME280;48237;50.140;8.486;2023-05-19T01:04:58;100328.44;;;9.96;54.06
62248;BME280;48237;50.140;8.486;2023-05-19T01:04:59;100329.05;;;10.04;54.01
62248;BME280;48237;50.140;8.486;2023-05-19T01:07:27;100335.57;;;9.47;55.36
62248;BME280;48237;50.140;8.486;2023-05-19T01:07:29;100334.48;;;9.49;55.36
62248;BME280;48237;50.140;8.486;2023-05-19T01:09:58;100332.64;;;9.84;55.01
62248;BME280;48237;50.140;8.486;2023-05-19T01:09:59;100332.36;;;9.37;55.04
62248;BME280;48237;50.140;8.486;2023-05-19T01:12:26;100333.56;;;8.64;57.40
62248;BME280;48237;50.140;8.486;2023-05-19T01:12:28;100333.81;;;8.95;57.30
62248;BME280;48237;50.140;8.486;2023-05-19T01:14:56;100333.63;;;9.22;57.25
62248;BME280;48237;50.140;8.486;2023-05-19T01:14:57;100334.27;;;9.02;57.30
62248;BME280;48237;50.140;8.486;2023-05-19T01:17:29;100331.35;;;9.41;56.63
62248;BME280;48237;50.140;8.486;2023-05-19T01:17:32;100331.65;;;9.40;56.52
62248;BME280;48237;50.140;8.486;2023-05-19T01:20:10;100328.05;;;9.82;55.59
62248;BME280;48237;50.140;8.486;2023-05-19T01:20:11;100327.15;;;9.77;55.66
62248;BME280;48237;50.140;8.486;2023-05-19T01:22:57;100325.08;;;9.61;55.09
62248;BME280;48237;50.140;8.486;2023-05-19T01:23:30;100325.20;;;10.04;55.07
62248;BME280;48237;50.140;8.486;2023-05-19T01:25:50;100326.03;;;9.69;55.92
62248;BME280;48237;50.140;8.486;2023-05-19T01:27:20;100328.41;;;8.84;56.65
62248;BME280;48237;50.140;8.486;2023-05-19T01:28:37;100321.23;;;9.94;54.87
62248;BME280;48237;50.140;8.486;2023-05-19T01:30:11;100323.58;;;9.67;54.84
62248;BME280;48237;50.140;8.486;2023-05-19T01:31:16;100319.84;;;10.35;53.56
62248;BME280;48237;50.140;8.486;2023-05-19T01:32:44;100325.03;;;9.71;54.85
62248;BME280;48237;50.140;8.486;2023-05-19T01:33:48;100324.35;;;9.48;55.70
62248;BME280;48237;50.140;8.486;2023-05-19T01:35:17;100322.17;;;9.94;54.56
62248;BME280;48237;50.140;8.486;2023-05-19T01:36:18;100324.98;;;9.35;54.79
62248;BME280;48237;50.140;8.486;2023-05-19T01:37:47;100322.42;;;9.87;54.58
62248;BME280;48237;50.140;8.486;2023-05-19T01:38:50;100325.53;;;9.92;54.18
62248;BME280;48237;50.140;8.486;2023-05-19T01:40:18;100322.59;;;10.74;53.61
62248;BME280;48237;50.140;8.486;2023-05-19T01:41:21;100323.65;;;10.26;53.79
62248;BME280;48237;50.140;8.486;2023-05-19T01:42:48;100321.37;;;9.87;54.51
62248;BME280;48237;50.140;8.486;2023-05-19T01:43:49;100326.31;;;9.82;54.69
62248;BME280;48237;50.140;8.486;2023-05-19T01:45:19;100324.85;;;9.99;55.37
62248;BME280;48237;50.140;8.486;2023-05-19T01:46:18;100322.80;;;9.96;54.36
62248;BME280;48237;50.140;8.486;2023-05-19T01:47:50;100321.48;;;9.89;55.12
62248;BME280;48237;50.140;8.486;2023-05-19T01:48:48;100322.83;;;9.76;55.62
62248;BME280;48237;50.140;8.486;2023-05-19T01:50:19;100322.92;;;9.73;55.74
62248;BME280;48237;50.140;8.486;2023-05-19T01:51:18;100318.54;;;9.83;54.31
62248;BME280;48237;50.140;8.486;2023-05-19T01:52:47;100324.24;;;10.12;54.73
62248;BME280;48237;50.140;8.486;2023-05-19T01:53:47;100329.19;;;9.21;56.18
62248;BME280;48237;50.140;8.486;2023-05-19T01:55:19;100329.24;;;9.76;54.98
62248;BME280;48237;50.140;8.486;2023-05-19T01:56:19;100331.80;;;9.53;56.09
62248;BME280;48237;50.140;8.486;2023-05-19T01:57:59;100334.23;;;9.69;56.59
62248;BME280;48237;50.140;8.486;2023-05-19T01:58:55;100332.06;;;9.43;56.26
62248;BME280;48237;50.140;8.486;2023-05-19T02:00:35;100328.61;;;9.90;55.51
62248;BME280;48237;50.140;8.486;2023-05-19T02:01:32;100334.86;;;9.78;54.74
62248;BME280;48237;50.140;8.486;2023-05-19T02:03:13;100328.27;;;9.83;54.75
62248;BME280;48237;50.140;8.486;2023-05-19T02:04:13;100326.49;;;9.85;54.73
62248;BME280;48237;50.140;8.486;2023-05-19T02:05:53;100324.08;;;10.41;54.06
62248;BME280;48237;50.140;8.486;2023-05-19T02:06:48;100322.46;;;10.04;54.20
62248;BME280;48237;50.140;8.486;2023-05-19T02:08:32;100330.44;;;9.72;54.96
62248;BME280;48237;50.140;8.486;2023-05-19T02:09:24;100335.32;;;9.50;55.37
62248;BME280;48237;50.140;8.486;2023-05-19T02:11:08;100332.00;;;9.58;55.43
62248;BME280;48237;50.140;8.486;2023-05-19T02:11:58;100330.67;;;9.52;55.44
62248;BME280;48237;50.140;8.486;2023-05-19T02:13:43;100333.71;;;9.53;55.73
62248;BME280;48237;50.140;8.486;2023-05-19T02:14:32;100330.86;;;9.67;55.87
62248;BME280;48237;50.140;8.486;2023-05-19T02:16:12;100330.78;;;8.77;57.76
62248;BME280;48237;50.140;8.486;2023-05-19T02:17:05;100330.89;;;8.58;57.82
62248;BME280;48237;50.140;8.486;2023-05-19T02:18:41;100333.56;;;9.48;57.54
62248;BME280;48237;50.140;8.486;2023-05-19T02:19:36;100331.83;;;9.32;56.70
62248;BME280;48237;50.140;8.486;2023-05-19T02:21:09;100332.19;;;9.35;56.65
62248;BME280;48237;50.140;8.486;2023-05-19T02:22:06;100336.45;;;9.29;56.89
62248;BME280;48237;50.140;8.486;2023-05-19T02:23:39;100331.96;;;9.42;56.92
62248;BME280;48237;50.140;8.486;2023-05-19T02:24:34;100337.88;;;9.40;56.00
62248;BME280;48237;50.140;8.486;2023-05-19T02:26:09;100338.64;;;9.39;55.96
62248;BME280;48237;50.140;8.486;2023-05-19T02:27:05;100335.90;;;9.64;55.94
62248;BME280;48237;50.140;8.486;2023-05-19T02:28:37;100332.82;;;9.41;55.69
62248;BME280;48237;50.140;8.486;2023-05-19T02:29:33;100330.96;;;9.71;55.60
62248;BME280;48237;50.140;8.486;2023-05-19T02:31:06;100327.71;;;9.90;55.34
62248;BME280;48237;50.140;8.486;2023-05-19T02:32:05;100331.83;;;9.88;55.56
62248;BME280;48237;50.140;8.486;2023-05-19T02:33:34;100327.30;;;9.62;55.79
62248;BME280;48237;50.140;8.486;2023-05-19T02:34:34;100327.14;;;9.42;56.31
62248;BME280;48237;50.140;8.486;2023-05-19T02:36:04;100324.88;;;9.52;56.10
62248;BME280;48237;50.140;8.486;2023-05-19T02:37:03;100327.79;;;9.27;56.09
62248;BME280;48237;50.140;8.486;2023-05-19T02:38:33;100326.87;;;9.24;57.36
62248;BME280;48237;50.140;8.486;2023-05-19T02:39:32;100325.10;;;9.52;56.08
62248;BME280;48237;50.140;8.486;2023-05-19T02:41:04;100317.40;;;9.89;54.44
62248;BME280;48237;50.140;8.486;2023-05-19T02:42:03;100323.98;;;9.60;55.32
62248;BME280;48237;50.140;8.486;2023-05-19T02:43:33;100323.84;;;9.70;54.80
62248;BME280;48237;50.140;8.486;2023-05-19T02:44:31;100320.49;;;9.61;55.17
62248;BME280;48237;50.140;8.486;2023-05-19T02:46:13;100314.38;;;10.38;54.49
62248;BME280;48237;50.140;8.486;2023-05-19T02:47:01;100314.70;;;10.16;54.09
62248;BME280;48237;50.140;8.486;2023-05-19T02:48:42;100309.82;;;9.76;54.81
62248;BME280;48237;50.140;8.486;2023-05-19T02:49:30;100306.55;;;10.02;54.60
62248;BME280;48237;50.140;8.486;2023-05-19T02:51:09;100310.09;;;9.51;55.29
62248;BME280;48237;50.140;8.486;2023-05-19T02:52:02;100311.37;;;9.67;55.91
62248;BME280;48237;50.140;8.486;2023-05-19T02:53:37;100306.56;;;9.74;55.18
62248;BME280;48237;50.140;8.486;2023-05-19T02:54:31;100309.43;;;9.23;55.99
62248;BME280;48237;50.140;8.486;2023-05-19T02:56:06;100310.51;;;9.61;56.08
62248;BME280;48237;50.140;8.486;2023-05-19T02:57:01;100300.91;;;9.54;55.23
62248;BME280;48237;50.140;8.486;2023-05-19T02:58:35;100304.23;;;9.30;55.62
62248;BME280;48237;50.140;8.486;2023-05-19T02:59:29;100299.29;;;9.55;55.22
62248;BME280;48237;50.140;8.486;2023-05-19T03:01:06;100306.54;;;9.47;56.04
62248;BME280;48237;50.140;8.486;2023-05-19T03:02:01;100314.86;;;9.22;56.27
62248;BME280;48237;50.140;8.486;2023-05-19T03:03:34;100305.02;;;10.09;54.71
62248;BME280;48237;50.140;8.486;2023-05-19T03:04:30;100304.99;;;10.42;54.68
62248;BME280;48237;50.140;8.486;2023-05-19T03:06:04;100305.24;;;10.16;55.36
62248;BME280;48237;50.140;8.486;2023-05-19T03:07:00;100303.00;;;10.34;54.34
62248;BME280;48237;50.140;8.486;2023-05-19T03:08:33;100301.39;;;10.11;54.20
62248;BME280;48237;50.140;8.486;2023-05-19T03:09:29;100302.91;;;9.82;54.85
62248;BME280;48237;50.140;8.486;2023-05-19T03:11:01;100299.04;;;9.72;55.01
62248;BME280;48237;50.140;8.486;2023-05-19T03:12:00;100300.64;;;9.83;55.31
62248;BME280;48237;50.140;8.486;2023-05-19T03:13:29;100300.52;;;9.93;55.69
62248;BME280;48237;50.140;8.486;2023-05-19T03:14:30;100306.73;;;7.69;61.46
62248;BME280;48237;50.140;8.486;2023-05-19T03:16:02;100304.56;;;8.84;57.67
62248;BME280;48237;50.140;8.486;2023-05-19T03:17:01;100299.70;;;9.55;56.77
62248;BME280;48237;50.140;8.486;2023-05-19T03:18:29;100303.54;;;10.02;55.40
62248;BME280;48237;50.140;8.486;2023-05-19T03:19:29;100307.88;;;9.36;56.56
62248;BME280;48237;50.140;8.486;2023-05-19T03:20:58;100306.28;;;9.74;55.26
62248;BME280;48237;50.140;8.486;2023-05-19T03:21:59;100306.08;;;9.62;55.40
62248;BME280;48237;50.140;8.486;2023-05-19T03:23:26;100306.54;;;9.46;55.73
62248;BME280;48237;50.140;8.486;2023-05-19T03:24:28;100312.12;;;9.38;56.25
62248;BME280;48237;50.140;8.486;2023-05-19T03:25:55;100304.39;;;9.73;55.83
62248;BME280;48237;50.140;8.486;2023-05-19T03:26:56;100305.40;;;9.83;55.14
62248;BME280;48237;50.140;8.486;2023-05-19T03:28:23;100310.20;;;9.53;55.77
62248;BME280;48237;50.140;8.486;2023-05-19T03:29:23;100312.10;;;8.70;57.72
62248;BME280;48237;50.140;8.486;2023-05-19T03:30:51;100314.10;;;8.50;58.81
62248;BME280;48237;50.140;8.486;2023-05-19T03:31:51;100312.08;;;9.40;57.38
62248;BME280;48237;50.140;8.486;2023-05-19T03:33:20;100313.58;;;8.74;58.34
62248;BME280;48237;50.140;8.486;2023-05-19T03:34:19;100313.74;;;8.15;60.21
62248;BME280;48237;50.140;8.486;2023-05-19T03:35:49;100312.69;;;9.12;57.33
62248;BME280;48237;50.140;8.486;2023-05-19T03:36:48;100310.82;;;9.57;55.55
62248;BME280;48237;50.140;8.486;2023-05-19T03:38:20;100306.75;;;9.90;54.90
62248;BME280;48237;50.140;8.486;2023-05-19T03:39:18;100309.66;;;9.49;54.72
62248;BME280;48237;50.140;8.486;2023-05-19T03:40:48;100312.90;;;9.48;55.18
62248;BME280;48237;50.140;8.486;2023-05-19T03:41:47;100316.91;;;9.82;55.39
62248;BME280;48237;50.140;8.486;2023-05-19T03:43:16;100321.16;;;9.41;57.07
62248;BME280;48237;50.140;8.486;2023-05-19T03:44:16;100320.44;;;9.50;56.34
62248;BME280;48237;50.140;8.486;2023-05-19T03:45:44;100318.33;;;9.06;56.75
62248;BME280;48237;50.140;8.486;2023-05-19T03:46:44;100317.91;;;9.04;57.76
62248;BME280;48237;50.140;8.486;2023-05-19T03:48:13;100312.60;;;9.40;57.00
62248;BME280;48237;50.140;8.486;2023-05-19T03:49:13;100315.78;;;9.47;56.43
62248;BME280;48237;50.140;8.486;2023-05-19T03:50:42;100307.88;;;9.76;55.70
62248;BME280;48237;50.140;8.486;2023-05-19T03:51:41;100317.24;;;8.89;58.43
62248;BME280;48237;50.140;8.486;2023-05-19T03:53:11;100316.38;;;9.49;56.90
62248;BME280;48237;50.140;8.486;2023-05-19T03:54:10;100316.76;;;9.19;55.99
62248;BME280;48237;50.140;8.486;2023-05-19T03:55:40;100315.95;;;9.43;56.09
62248;BME280;48237;50.140;8.486;2023-05-19T03:56:39;100311.03;;;9.59;55.90
62248;BME280;48237;50.140;8.486;2023-05-19T03:58:08;100307.52;;;9.95;56.19
62248;BME280;48237;50.140;8.486;2023-05-19T03:59:09;100312.90;;;9.19;57.38
62248;BME280;48237;50.140;8.486;2023-05-19T04:00:36;100312.63;;;9.71;55.23
62248;BME280;48237;50.140;8.486;2023-05-19T04:01:37;100311.96;;;9.55;55.29
62248;BME280;48237;50.140;8.486;2023-05-19T04:03:05;100309.99;;;9.53;55.91
62248;BME280;48237;50.140;8.486;2023-05-19T04:04:06;100314.30;;;9.12;57.21
62248;BME280;48237;50.140;8.486;2023-05-19T04:05:33;100318.40;;;8.83;59.17
62248;BME280;48237;50.140;8.486;2023-05-19T04:06:34;100319.83;;;9.41;57.12
62248;BME280;48237;50.140;8.486;2023-05-19T04:08:02;100316.23;;;9.16;57.17
62248;BME280;48237;50.140;8.486;2023-05-19T04:09:10;100316.74;;;9.46;57.12
62248;BME280;48237;50.140;8.486;2023-05-19T04:10:30;100316.66;;;9.57;56.75
62248;BME280;48237;50.140;8.486;2023-05-19T04:11:39;100313.87;;;9.70;56.17
62248;BME280;48237;50.140;8.486;2023-05-19T04:13:02;100311.65;;;9.96;55.34
62248;BME280;48237;50.140;8.486;2023-05-19T04:14:07;100309.84;;;10.15;55.65
62248;BME280;48237;50.140;8.486;2023-05-19T04:15:29;100314.00;;;10.57;54.99
62248;BME280;48237;50.140;8.486;2023-05-19T04:16:36;100307.61;;;10.19;54.83
62248;BME280;48237;50.140;8.486;2023-05-19T04:18:00;100309.42;;;10.03;55.95
62248;BME280;48237;50.140;8.486;2023-05-19T04:19:06;100316.08;;;8.93;58.35
62248;BME280;48237;50.140;8.486;2023-05-19T04:20:30;100308.78;;;9.86;55.93
62248;BME280;48237;50.140;8.486;2023-05-19T04:21:35;100314.17;;;10.00;55.15
62248;BME280;48237;50.140;8.486;2023-05-19T04:23:00;100322.18;;;9.06;57.37
62248;BME280;48237;50.140;8.486;2023-05-19T04:24:05;100315.78;;;9.69;56.59
62248;BME280;48237;50.140;8.486;2023-05-19T04:25:29;100318.73;;;9.82;55.78
62248;BME280;48237;50.140;8.486;2023-05-19T04:26:34;100319.71;;;10.13;55.52
62248;BME280;48237;50.140;8.486;2023-05-19T04:27:57;100317.29;;;9.87;55.12
62248;BME280;48237;50.140;8.486;2023-05-19T04:29:06;100323.48;;;9.13;57.81
62248;BME280;48237;50.140;8.486;2023-05-19T04:30:26;100323.11;;;9.63;56.08
62248;BME280;48237;50.140;8.486;2023-05-19T04:31:35;100316.01;;;9.81;56.11
62248;BME280;48237;50.140;8.486;2023-05-19T04:32:55;100316.42;;;9.68;55.61
62248;BME280;48237;50.140;8.486;2023-05-19T04:34:05;100316.48;;;10.03;55.64
62248;BME280;48237;50.140;8.486;2023-05-19T04:35:24;100319.37;;;9.95;55.93
62248;BME280;48237;50.140;8.486;2023-05-19T04:36:33;100317.84;;;9.78;55.56
62248;BME280;48237;50.140;8.486;2023-05-19T04:37:53;100319.72;;;10.37;55.39
62248;BME280;48237;50.140;8.486;2023-05-19T04:39:02;100327.31;;;9.37;57.11
62248;BME280;48237;50.140;8.486;2023-05-19T04:40:22;100317.38;;;9.94;55.42
62248;BME280;48237;50.140;8.486;2023-05-19T04:41:31;100319.79;;;10.44;54.60
62248;BME280;48237;50.140;8.486;2023-05-19T04:42:51;100325.04;;;10.19;54.42
62248;BME280;48237;50.140;8.486;2023-05-19T04:44:00;100321.69;;;10.31;54.19
62248;BME280;48237;50.140;8.486;2023-05-19T04:45:20;100324.19;;;10.31;54.47
62248;BME280;48237;50.140;8.486;2023-05-19T04:46:29;100321.38;;;10.53;54.73
62248;BME280;48237;50.140;8.486;2023-05-19T04:47:48;100321.58;;;10.12;55.13
62248;BME280;48237;50.140;8.486;2023-05-19T04:48:57;100324.78;;;10.19;54.64
62248;BME280;48237;50.140;8.486;2023-05-19T04:50:18;100325.87;;;10.71;53.84
62248;BME280;48237;50.140;8.486;2023-05-19T04:51:25;100327.23;;;10.95;53.67
62248;BME280;48237;50.140;8.486;2023-05-19T04:52:46;100335.39;;;9.56;58.00
62248;BME280;48237;50.140;8.486;2023-05-19T04:53:54;100329.29;;;10.14;55.63
62248;BME280;48237;50.140;8.486;2023-05-19T04:55:14;100327.80;;;9.90;56.01
62248;BME280;48237;50.140;8.486;2023-05-19T04:56:23;100333.19;;;9.01;58.40
62248;BME280;48237;50.140;8.486;2023-05-19T04:57:42;100330.17;;;10.17;56.32
62248;BME280;48237;50.140;8.486;2023-05-19T04:58:52;100329.05;;;10.17;55.42
62248;BME280;48237;50.140;8.486;2023-05-19T05:00:12;100338.61;;;9.41;58.22
62248;BME280;48237;50.140;8.486;2023-05-19T05:01:22;100330.52;;;10.15;56.43
62248;BME280;48237;50.140;8.486;2023-05-19T05:02:40;100329.75;;;10.23;55.29
62248;BME280;48237;50.140;8.486;2023-05-19T05:03:51;100329.16;;;10.38;54.92
62248;BME280;48237;50.140;8.486;2023-05-19T05:05:09;100335.61;;;9.44;56.85
62248;BME280;48237;50.140;8.486;2023-05-19T05:06:19;100337.57;;;9.54;58.18
62248;BME280;48237;50.140;8.486;2023-05-19T05:07:38;100336.21;;;8.49;61.51
62248;BME280;48237;50.140;8.486;2023-05-19T05:08:48;100336.16;;;9.28;59.68
62248;BME280;48237;50.140;8.486;2023-05-19T05:10:08;100327.44;;;9.93;57.74
62248;BME280;48237;50.140;8.486;2023-05-19T05:11:16;100326.67;;;10.14;58.01
62248;BME280;48237;50.140;8.486;2023-05-19T05:12:37;100333.11;;;8.69;59.96
62248;BME280;48237;50.140;8.486;2023-05-19T05:13:45;100331.35;;;9.00;59.92
62248;BME280;48237;50.140;8.486;2023-05-19T05:15:07;100321.15;;;9.97;57.25
62248;BME280;48237;50.140;8.486;2023-05-19T05:16:15;100322.86;;;10.26;55.62
62248;BME280;48237;50.140;8.486;2023-05-19T05:17:36;100320.92;;;10.07;56.09
62248;BME280;48237;50.140;8.486;2023-05-19T05:18:44;100327.22;;;9.76;59.04
62248;BME280;48237;50.140;8.486;2023-05-19T05:20:05;100329.82;;;8.44;61.25
62248;BME280;48237;50.140;8.486;2023-05-19T05:21:14;100330.92;;;9.55;60.66
62248;BME280;48237;50.140;8.486;2023-05-19T05:22:35;100330.26;;;9.16;58.24
62248;BME280;48237;50.140;8.486;2023-05-19T05:23:43;100324.92;;;10.27;57.35
62248;BME280;48237;50.140;8.486;2023-05-19T05:25:05;100337.84;;;9.54;58.34
62248;BME280;48237;50.140;8.486;2023-05-19T05:26:17;100331.58;;;10.16;56.63
62248;BME280;48237;50.140;8.486;2023-05-19T05:27:35;100329.48;;;10.21;55.50
62248;BME280;48237;50.140;8.486;2023-05-19T05:28:46;100323.83;;;10.45;55.51
62248;BME280;48237;50.140;8.486;2023-05-19T05:30:05;100322.48;;;10.17;57.76
62248;BME280;48237;50.140;8.486;2023-05-19T05:31:16;100324.10;;;10.45;54.71
62248;BME280;48237;50.140;8.486;2023-05-19T05:32:35;100323.60;;;10.09;56.43
62248;BME280;48237;50.140;8.486;2023-05-19T05:33:46;100321.61;;;10.43;56.67
62248;BME280;48237;50.140;8.486;2023-05-19T05:35:05;100328.06;;;9.60;60.00
62248;BME280;48237;50.140;8.486;2023-05-19T05:36:15;100328.49;;;8.89;60.80
62248;BME280;48237;50.140;8.486;2023-05-19T05:37:34;100321.15;;;10.15;58.74
62248;BME280;48237;50.140;8.486;2023-05-19T05:38:43;100322.61;;;10.34;56.01
62248;BME280;48237;50.140;8.486;2023-05-19T05:40:04;100321.77;;;10.12;55.73
62248;BME280;48237;50.140;8.486;2023-05-19T05:41:12;100323.79;;;10.58;54.90
62248;BME280;48237;50.140;8.486;2023-05-19T05:42:33;100315.84;;;10.66;54.77
62248;BME280;48237;50.140;8.486;2023-05-19T05:43:40;100313.26;;;10.69;54.66
62248;BME280;48237;50.140;8.486;2023-05-19T05:45:01;100314.88;;;11.37;55.06
62248;BME280;48237;50.140;8.486;2023-05-19T05:46:08;100324.14;;;9.53;56.71
62248;BME280;48237;50.140;8.486;2023-05-19T05:47:30;100317.98;;;10.38;55.86
62248;BME280;48237;50.140;8.486;2023-05-19T05:48:37;100314.63;;;10.93;54.65
62248;BME280;48237;50.140;8.486;2023-05-19T05:50:05;100313.42;;;10.84;54.24
62248;BME280;48237;50.140;8.486;2023-05-19T05:51:09;100313.98;;;10.29;56.41
62248;BME280;48237;50.140;8.486;2023-05-19T05:52:35;100324.57;;;9.42;58.49
62248;BME280;48237;50.140;8.486;2023-05-19T05:53:40;100318.55;;;9.91;59.40
62248;BME280;48237;50.140;8.486;2023-05-19T05:55:05;100315.21;;;10.45;57.94
62248;BME280;48237;50.140;8.486;2023-05-19T05:56:10;100316.71;;;10.72;55.84
62248;BME280;48237;50.140;8.486;2023-05-19T05:57:34;100312.30;;;10.65;56.10
62248;BME280;48237;50.140;8.486;2023-05-19T05:58:40;100313.91;;;10.22;56.72
62248;BME280;48237;50.140;8.486;2023-05-19T06:00:06;100314.79;;;11.47;52.90
62248;BME280;48237;50.140;8.486;2023-05-19T06:01:10;100315.48;;;11.29;53.71
62248;BME280;48237;50.140;8.486;2023-05-19T06:02:36;100315.10;;;11.17;56.70
62248;BME280;48237;50.140;8.486;2023-05-19T06:03:40;100317.58;;;10.65;56.66
62248;BME280;48237;50.140;8.486;2023-05-19T06:05:05;100316.37;;;11.85;55.64
62248;BME280;48237;50.140;8.486;2023-05-19T06:06:09;100318.59;;;10.80;54.79
62248;BME280;48237;50.140;8.486;2023-05-19T06:07:33;100316.91;;;11.27;54.58
62248;BME280;48237;50.140;8.486;2023-05-19T06:08:38;100314.75;;;10.99;53.61
62248;BME280;48237;50.140;8.486;2023-05-19T06:10:05;100313.13;;;11.62;52.06
62248;BME280;48237;50.140;8.486;2023-05-19T06:11:07;100314.82;;;11.55;52.09
62248;BME280;48237;50.140;8.486;2023-05-19T06:12:34;100314.68;;;11.53;52.80
62248;BME280;48237;50.140;8.486;2023-05-19T06:13:35;100316.67;;;10.58;53.53
62248;BME280;48237;50.140;8.486;2023-05-19T06:15:06;100311.81;;;10.24;57.21
62248;BME280;48237;50.140;8.486;2023-05-19T06:16:04;100316.44;;;10.43;57.70
62248;BME280;48237;50.140;8.486;2023-05-19T06:17:34;100308.61;;;10.83;54.65
62248;BME280;48237;50.140;8.486;2023-05-19T06:18:32;100311.76;;;10.26;56.73
62248;BME280;48237;50.140;8.486;2023-05-19T06:20:05;100309.14;;;10.90;56.02
62248;BME280;48237;50.140;8.486;2023-05-19T06:21:01;100306.70;;;10.60;56.14
62248;BME280;48237;50.140;8.486;2023-05-19T06:22:34;100311.56;;;10.78;55.80
62248;BME280;48237;50.140;8.486;2023-05-19T06:23:30;100320.02;;;11.21;53.34
62248;BME280;48237;50.140;8.486;2023-05-19T06:25:05;100317.14;;;10.74;53.30
62248;BME280;48237;50.140;8.486;2023-05-19T06:26:01;100311.95;;;10.37;54.31
62248;BME280;48237;50.140;8.486;2023-05-19T06:27:34;100320.56;;;10.71;53.34
62248;BME280;48237;50.140;8.486;2023-05-19T06:28:29;100309.48;;;11.16;52.49
62248;BME280;48237;50.140;8.486;2023-05-19T06:30:04;100312.86;;;11.15;53.12
62248;BME280;48237;50.140;8.486;2023-05-19T06:30:57;100315.83;;;10.86;55.46
62248;BME280;48237;50.140;8.486;2023-05-19T06:32:33;100320.49;;;10.48;55.70
62248;BME280;48237;50.140;8.486;2023-05-19T06:33:26;100319.32;;;10.42;57.18
62248;BME280;48237;50.140;8.486;2023-05-19T06:35:04;100317.48;;;10.16;56.94